Weather at Newark Liberty International Airport

Public forecast

Using degrees Fahrenheit for public forecast. Weather courtesy of forecast.io.

Current aviation weather report (METAR) for Newark Liberty International Airport

Retrieved 2021/07/29 07:51 UTC (43 minutes ago):

KEWR 290751Z 17003KT 10SM FEW020 SCT045 22/19 A3001 RMK AO2 SLP161 T02220189

Aviation forecast (TAF) for Newark Liberty International Airport

Retrieved 2021/07/29 06:27 UTC (2 hours ago):

TAF KEWR 290524Z 2906/3012 VRB04KT P6SM SCT015 SCT050 FM290800 15005KT P6SM SCT015 SCT050 TEMPO 2910/2914 BKN015 FM291400 15007KT 6SM -SHRA BR SCT015 BKN025 FM291800 15008KT P6SM VCSH SCT015 BKN025 PROB30 2919/2924 3SM TSRA SCT015 BKN050CB FM300000 21007KT P6SM SCT015 BKN025 FM300600 25009KT P6SM BKN025